メインページ
METAR-TAF:

METAR-TAF

空港 :

バミューダ国際空港

バミューダ諸島, バミューダ諸島

緯度: 32-22N, 経度: 064-41W, 海抜: 6m

現時点の気象観測

当レポートは27分前の03:55(UTC)に作成
南東の風 21kt
気温 23°C
湿度 83%
気圧 1022 hPa
視程10km以上
高度1500ftの千切れ雲あり
高度2500ftの曇り

METAR: TXKF 160355Z 13021KT 9999 BKN015 OVC025 23/20 Q1022

時間: 00:22 (04:22 UTC)

予報

当レポートは4時間37分前の23:45(UTC)に作成
予報は16日の 00時(UTC)から 16日の 24時(UTC)まで有効
東/南東の風 16kt
視程10km以上
高度1600ftの千切れ雲あり
高度2500ftの曇り
確率 40% :
16日の 00時(UTC)から 16日の 08時(UTC)まで一時的に
視程: 9000m
高度1200ftの千切れ雲あり
弱いにわか雨
16日の 06時(UTC)から 16日の 08時(UTC)まで徐々に
南/南東の風 18kt
高度2500ftの雲は散在している
近辺でにわか雨

TAF: TXKF 152345Z 1600/1624 11016KT 9999 BKN016 OVC025 PROB40 TEMPO 1600/1608 9000 -SHRA BKN012 BECMG 1606/1608 16018KT VCSH SCT025

4,000以上の空港の気象観測と天気予報(METAR報とTAF報)

利用可能な観測所は地図上に黄色い丸と赤い丸で示す。

丸の上にカーソルを重ねると観測所名を参照できる。

次にクリックすると気象観測と天気予報を参照できる。

マップの切り替え:黒色「×」印の緑ボタンをクリックして拡大、「-」印の緑ボタンをクリックして縮小、緑色の三角印をクリックして隣りの地図に切り替え


METAR-TAF: